Angler Guide Weather for Vancouver -
Vancouver, British Columbia Current Weather Conditions
Enter your "Place, State", US Zip Code or ICAO:  
Forecast Information Radar Information
Vancouver, British Columbia, Canada  Lat: 49.20N, Lon: 123.18W
ICAO Used: CYCD
Current Conditions
Updated:
Sun & Moon Information:
Temp: N/A
Humidity: N/A
Wind Speed: N/A
Barometer: N/A
Dewpoint: N/A
Heat Index: N/A
Wind Chill: N/A
Civil Twilight: 7:23 AM PST
Moonrise: 6:15 AM PST Moon Phase:
Waning Crescent Moon
Waning Crescent Moon
Moonset: 3:44 PM PST
Sunrise: 8:00 AM PST
Sunset: 4:14 PM PST
Civil Twilight: 4:51 PM PST
Forecast for Vancouver, BC:
(Forecast based on TAF for )
0125 PM PST MON NOV 06 2006
  
AFTERNOONEVENING
LIGHT RAINMOSTLY CLOUDY
Light
Rain
Mostly
Cloudy
TAF based forecast:
Dated: 0125 PM PST MON NOV 06 2006
Afternoon...Overcast with light rain with winds from the south south east at 7 mph. Then turning mostly cloudy with winds from the south at 12 mph. Possible periods of mostly cloudy with light rain and mist.
Evening...Turning mostly cloudy with winds from the south at 12 mph.
Original Encoded TAF:
Dated: 0125 PM PST MON NOV 06 2006
2006/11/06 21:25
CYCD 062125Z 062105 16006KT P6SM -RA SCT005 OVC050 TEMPO 2101 1SM -RA BR BKN005 FM0100Z 18010KT P6SM SCT015 BKN060=




Powered by Angler Guide.com
Copyright 2007, all rights reserved.